Time;durP1;ratioP1;P1;durP2;ratioP2;P2;SDS_P1;SDS_P2;PMS_P1;PMS_P2;Temp;Humidity;BMP_temperature;BMP_pressure;BME280_temperature;BME280_humidity;BME280_pressure;Samples;Min_cycle;Max_cycle;Signal;HPM_P1;HPM_P2
2021/12/14 00:01:43;;;;;;;32.50;12.53;;;-1.40;99.90;;;;;;5033209;28;20329;-60
2021/12/14 00:04:10;;;;;;;31.27;12.07;;;-1.40;99.90;;;;;;5032617;28;20182;-65
2021/12/14 00:06:37;;;;;;;36.63;13.47;;;-1.40;99.90;;;;;;5032287;28;20208;-59
2021/12/14 00:09:05;;;;;;;29.80;11.43;;;-1.40;99.90;;;;;;5032817;28;20191;-62
2021/12/14 00:16:43;;;;;;;29.30;11.63;;;-1.40;99.90;;;;;;5032435;28;20179;-64
2021/12/14 00:19:09;;;;;;;41.33;14.40;;;-1.30;99.90;;;;;;5032622;28;20185;-62
2021/12/14 00:21:37;;;;;;;36.07;15.77;;;-1.30;99.90;;;;;;5034090;28;20202;-59
2021/12/14 00:24:14;;;;;;;21.13;7.60;;;-1.30;99.90;;;;;;5034348;28;20262;-60
2021/12/14 00:27:00;;;;;;;37.63;13.70;;;-1.30;99.90;;;;;;5034288;28;20453;-59
2021/12/14 00:29:40;;;;;;;35.70;13.90;;;-1.40;99.90;;;;;;5034197;28;20187;-58
2021/12/14 00:32:12;;;;;;;28.10;11.73;;;-1.40;99.90;;;;;;5034331;28;20277;-59
2021/12/14 00:34:43;;;;;;;35.57;13.87;;;-1.40;99.90;;;;;;5033940;28;20274;-58
2021/12/14 00:37:14;;;;;;;22.33;10.27;;;-1.30;99.90;;;;;;5034257;28;20183;-58
2021/12/14 00:39:42;;;;;;;32.20;11.20;;;-1.30;99.90;;;;;;5034042;28;20207;-61
2021/12/14 00:42:08;;;;;;;32.67;13.13;;;-1.30;99.90;;;;;;5034158;28;20185;-59
2021/12/14 00:44:34;;;;;;;32.37;11.93;;;-1.30;99.90;;;;;;5034053;28;20203;-59
2021/12/14 00:47:01;;;;;;;36.10;15.87;;;-1.30;99.90;;;;;;5033711;28;20217;-59
2021/12/14 00:49:27;;;;;;;34.17;14.33;;;-1.30;99.90;;;;;;5034218;28;20182;-59
2021/12/14 00:51:54;;;;;;;24.60;11.20;;;-1.40;99.90;;;;;;5033764;28;20178;-60
2021/12/14 00:54:21;;;;;;;25.27;11.50;;;-1.40;99.90;;;;;;5033999;28;20246;-58
2021/12/14 00:56:49;;;;;;;27.00;11.57;;;-1.40;99.90;;;;;;5033629;28;20324;-59
2021/12/14 00:59:15;;;;;;;37.40;13.10;;;-1.40;99.90;;;;;;5033891;28;20190;-59
2021/12/14 01:01:52;;;;;;;30.97;11.33;;;-1.40;99.90;;;;;;5033364;28;20646;-59
2021/12/14 01:04:23;;;;;;;39.17;15.80;;;-1.40;99.90;;;;;;5033663;28;20292;-58
2021/12/14 01:06:49;;;;;;;24.97;9.63;;;-1.40;99.90;;;;;;5033562;28;20206;-56
2021/12/14 01:09:21;;;;;;;27.60;11.10;;;-1.40;99.90;;;;;;5033628;28;20623;-58
2021/12/14 01:11:49;;;;;;;29.97;12.93;;;-1.40;99.90;;;;;;5033160;28;20234;-59
2021/12/14 01:14:31;;;;;;;27.67;10.87;;;-1.40;99.90;;;;;;5033474;28;20238;-58
2021/12/14 01:17:27;;;;;;;21.03;8.70;;;-1.40;99.90;;;;;;5033306;28;20726;-60
2021/12/14 01:20:00;;;;;;;21.00;9.17;;;-1.40;99.90;;;;;;5032460;28;20520;-60
2021/12/14 01:25:13;;;;;;;25.93;9.80;;;-1.40;99.90;;;;;;5033327;28;20210;-60
2021/12/14 01:28:02;;;;;;;24.03;8.97;;;-1.50;99.90;;;;;;5032844;28;20593;-63
2021/12/14 01:30:28;;;;;;;23.93;10.80;;;-1.40;99.90;;;;;;5033066;28;20670;-57
2021/12/14 01:32:56;;;;;;;22.87;9.63;;;-1.40;99.90;;;;;;5032684;28;20187;-60
2021/12/14 01:35:28;;;;;;;24.77;9.87;;;-1.40;99.90;;;;;;5033216;28;20618;-59
2021/12/14 01:38:03;;;;;;;28.30;11.07;;;-1.40;99.90;;;;;;5032737;28;20182;-58
2021/12/14 01:43:36;;;;;;;19.47;9.77;;;-1.40;99.90;;;;;;5018992;28;20228;-60
2021/12/14 01:46:14;;;;;;;25.00;10.73;;;-1.40;99.90;;;;;;5032577;28;20210;-58
2021/12/14 01:48:40;;;;;;;28.83;11.13;;;-1.40;99.90;;;;;;5032893;28;20205;-67
2021/12/14 01:51:09;;;;;;;33.33;13.57;;;-1.50;99.90;;;;;;5032965;28;20266;-58
2021/12/14 01:53:37;;;;;;;22.67;11.20;;;-1.50;99.90;;;;;;5032614;28;20709;-58
2021/12/14 01:56:07;;;;;;;20.37;10.40;;;-1.50;99.90;;;;;;5032458;28;20183;-62
2021/12/14 01:58:45;;;;;;;27.73;11.73;;;-1.50;99.90;;;;;;5032625;28;20178;-59
2021/12/14 02:01:28;;;;;;;23.23;9.00;;;-1.50;99.90;;;;;;5015422;28;20494;-57
2021/12/14 02:03:57;;;;;;;20.67;8.67;;;-1.50;99.90;;;;;;5032274;28;20271;-60
2021/12/14 02:06:29;;;;;;;22.93;9.93;;;-1.50;99.90;;;;;;5032224;28;20238;-62
2021/12/14 02:09:07;;;;;;;15.90;6.20;;;-1.50;99.90;;;;;;5032376;28;20186;-58
2021/12/14 02:11:36;;;;;;;25.50;10.17;;;-1.50;99.90;;;;;;5032421;28;20228;-60
2021/12/14 02:14:04;;;;;;;17.07;7.70;;;-1.50;99.90;;;;;;5014198;28;20699;-57
2021/12/14 02:16:30;;;;;;;20.80;8.77;;;-1.50;99.90;;;;;;5032258;28;20182;-59
2021/12/14 02:19:04;;;;;;;19.10;8.40;;;-1.50;99.90;;;;;;5032362;28;20175;-56
2021/12/14 02:21:32;;;;;;;23.90;9.20;;;-1.50;99.90;;;;;;5032115;28;20658;-60
2021/12/14 02:24:00;;;;;;;20.20;10.53;;;-1.50;99.90;;;;;;5014269;28;20656;-58
2021/12/14 02:26:29;;;;;;;22.57;9.10;;;-1.50;99.90;;;;;;5031999;28;20221;-59
2021/12/14 02:28:57;;;;;;;21.07;9.83;;;-1.50;99.90;;;;;;5031786;28;20186;-60
2021/12/14 02:31:25;;;;;;;18.70;7.20;;;-1.50;99.90;;;;;;5031426;28;20179;-57
2021/12/14 02:33:53;;;;;;;25.77;11.50;;;-1.50;99.90;;;;;;5032053;28;20181;-59
2021/12/14 02:36:23;;;;;;;26.10;10.40;;;-1.50;99.90;;;;;;5031687;28;20187;-57
2021/12/14 02:39:22;;;;;;;25.83;11.43;;;-1.50;99.90;;;;;;5031801;28;20232;-59
2021/12/14 02:41:53;;;;;;;30.27;13.40;;;-1.50;99.90;;;;;;5031431;28;20218;-59
2021/12/14 02:44:20;;;;;;;26.33;11.67;;;-1.50;99.90;;;;;;5031913;28;20182;-59
2021/12/14 02:46:54;;;;;;;26.23;10.43;;;-1.50;99.90;;;;;;5031615;28;20304;-59
2021/12/14 02:49:23;;;;;;;29.97;10.90;;;-1.50;99.90;;;;;;5031976;28;20189;-61
2021/12/14 02:51:58;;;;;;;27.80;11.43;;;-1.50;99.90;;;;;;5031562;28;20171;-58
2021/12/14 02:54:33;;;;;;;21.83;8.83;;;-1.50;99.90;;;;;;5014322;28;20534;-59
2021/12/14 02:57:05;;;;;;;27.50;10.77;;;-1.60;99.90;;;;;;5031405;28;20182;-59
2021/12/14 02:59:34;;;;;;;31.97;11.07;;;-1.60;99.90;;;;;;5031815;28;20189;-59
2021/12/14 03:02:04;;;;;;;24.93;10.87;;;-1.60;99.90;;;;;;5031852;28;20175;-57
2021/12/14 03:04:38;;;;;;;19.77;8.03;;;-1.60;99.90;;;;;;5031685;28;20509;-61
2021/12/14 03:07:04;;;;;;;26.93;11.47;;;-1.60;99.90;;;;;;5031477;28;20194;-59
2021/12/14 03:09:41;;;;;;;27.50;10.33;;;-1.60;99.90;;;;;;5031672;28;20258;-57
2021/12/14 03:12:29;;;;;;;26.67;11.37;;;-1.50;99.90;;;;;;5031530;28;20175;-60
2021/12/14 03:15:09;;;;;;;34.60;10.77;;;-1.60;99.90;;;;;;5023255;28;20206;-58
2021/12/14 03:17:36;;;;;;;27.47;11.13;;;-1.60;99.90;;;;;;5031696;28;20189;-58
2021/12/14 03:20:19;;;;;;;28.97;11.67;;;-1.60;99.90;;;;;;5031341;28;20182;-58
2021/12/14 03:22:51;;;;;;;34.30;12.07;;;-1.60;99.90;;;;;;5031267;28;20183;-72
2021/12/14 03:25:19;;;;;;;25.93;11.73;;;-1.50;99.90;;;;;;5031281;28;20206;-58
2021/12/14 03:27:47;;;;;;;28.63;11.90;;;-1.50;99.90;;;;;;5019838;28;20257;-59
2021/12/14 03:30:26;;;;;;;16.87;8.27;;;-1.50;99.90;;;;;;5011868;28;20179;-59
2021/12/14 03:32:57;;;;;;;38.57;11.97;;;-1.60;99.90;;;;;;5011604;28;20175;-56
2021/12/14 03:35:38;;;;;;;28.37;11.43;;;-1.60;99.90;;;;;;5011925;28;20176;-57
2021/12/14 03:38:16;;;;;;;29.93;11.13;;;-1.60;99.90;;;;;;5011404;28;20262;-59
2021/12/14 03:40:43;;;;;;;30.73;12.30;;;-1.50;99.90;;;;;;4993897;28;20233;-57
2021/12/14 03:43:13;;;;;;;25.23;11.13;;;-1.60;99.90;;;;;;5012611;28;20559;-59
2021/12/14 03:45:39;;;;;;;21.93;9.37;;;-1.60;99.90;;;;;;5015203;28;20218;-58
2021/12/14 03:48:05;;;;;;;32.00;13.30;;;-1.60;99.90;;;;;;5014904;28;20188;-59
2021/12/14 03:50:42;;;;;;;32.97;11.97;;;-1.60;99.90;;;;;;4997575;28;20224;-60
2021/12/14 03:53:10;;;;;;;22.27;9.33;;;-1.60;99.90;;;;;;5014640;28;20269;-59
2021/12/14 03:55:47;;;;;;;32.30;13.43;;;-1.60;99.90;;;;;;5015129;28;20241;-57
2021/12/14 03:58:23;;;;;;;30.13;12.43;;;-1.60;99.90;;;;;;5015108;28;20310;-60
2021/12/14 04:00:56;;;;;;;31.33;11.73;;;-1.60;99.90;;;;;;5014637;28;20226;-60
2021/12/14 04:03:24;;;;;;;25.50;10.67;;;-1.60;99.90;;;;;;5015099;28;20275;-58
2021/12/14 04:05:51;;;;;;;28.83;11.90;;;-1.60;99.90;;;;;;5014401;28;20247;-56
2021/12/14 04:08:19;;;;;;;23.57;10.43;;;-1.60;99.90;;;;;;5014638;28;20183;-58
2021/12/14 04:10:48;;;;;;;29.03;11.10;;;-1.60;99.90;;;;;;5014416;28;20631;-57
2021/12/14 04:13:21;;;;;;;27.73;11.03;;;-1.60;99.90;;;;;;5014384;28;20247;-60
2021/12/14 04:15:47;;;;;;;33.10;11.73;;;-1.60;99.90;;;;;;5014829;28;20229;-59
2021/12/14 04:18:13;;;;;;;35.50;13.70;;;-1.60;99.90;;;;;;4996942;28;20184;-62
2021/12/14 04:20:43;;;;;;;28.03;11.43;;;-1.60;99.90;;;;;;5014649;28;20251;-60
2021/12/14 04:23:17;;;;;;;23.87;8.87;;;-1.60;99.90;;;;;;5014248;28;20184;-60
2021/12/14 04:25:45;;;;;;;20.77;9.20;;;-1.60;99.90;;;;;;5014023;28;20214;-62
2021/12/14 04:28:15;;;;;;;27.27;11.27;;;-1.60;99.90;;;;;;5028619;28;20214;-57
2021/12/14 04:30:42;;;;;;;24.77;11.83;;;-1.70;99.90;;;;;;5034273;28;20627;-58
2021/12/14 04:33:12;;;;;;;20.30;8.83;;;-1.60;99.90;;;;;;5034152;28;20257;-57
2021/12/14 04:35:42;;;;;;;23.70;9.77;;;-1.60;99.90;;;;;;5034130;28;20511;-59
2021/12/14 04:38:17;;;;;;;28.00;10.67;;;-1.60;99.90;;;;;;5033835;28;20189;-60
2021/12/14 04:54:50;;;;;;;24.77;10.50;;;-1.60;99.90;;;;;;4933025;29;20221;-59
2021/12/14 04:57:27;;;;;;;20.80;8.00;;;-1.60;99.90;;;;;;4933567;29;20261;-59
2021/12/14 04:59:56;;;;;;;29.90;12.10;;;-1.70;99.90;;;;;;4993993;28;20183;-56
2021/12/14 05:02:29;;;;;;;25.17;11.80;;;-1.60;99.90;;;;;;5032905;28;20170;-59
2021/12/14 05:04:56;;;;;;;21.63;8.43;;;-1.70;99.90;;;;;;5032890;28;20282;-63
2021/12/14 05:07:47;;;;;;;28.50;9.80;;;-1.60;99.90;;;;;;5032983;28;20187;-59
2021/12/14 05:10:20;;;;;;;14.87;7.23;;;-1.60;99.90;;;;;;5032759;28;20472;-57
2021/12/14 05:12:46;;;;;;;20.83;8.97;;;-1.60;99.90;;;;;;5032538;28;20245;-60
2021/12/14 05:15:13;;;;;;;21.20;9.87;;;-1.60;99.90;;;;;;5032594;28;20190;-59
2021/12/14 05:17:41;;;;;;;25.50;11.00;;;-1.60;99.90;;;;;;5014820;28;20218;-58
2021/12/14 05:20:10;;;;;;;26.07;11.67;;;-1.60;99.90;;;;;;5032364;28;20198;-60
2021/12/14 05:22:38;;;;;;;24.57;10.90;;;-1.60;99.90;;;;;;5032278;28;20221;-60
2021/12/14 05:25:09;;;;;;;20.43;10.57;;;-1.50;99.90;;;;;;5032308;28;20202;-58
2021/12/14 05:27:43;;;;;;;23.20;10.23;;;-1.50;99.90;;;;;;5022148;28;20194;-58
2021/12/14 05:30:12;;;;;;;24.03;10.13;;;-1.50;99.90;;;;;;5012256;28;20584;-57
2021/12/14 05:32:39;;;;;;;21.77;9.37;;;-1.50;99.90;;;;;;5012586;28;20203;-60
2021/12/14 05:35:07;;;;;;;32.87;9.93;;;-1.50;99.90;;;;;;4994508;28;20662;-59
2021/12/14 05:37:42;;;;;;;24.57;11.77;;;-1.50;99.90;;;;;;5012275;28;20171;-57
2021/12/14 05:40:17;;;;;;;28.63;10.13;;;-1.50;99.90;;;;;;5012331;28;20257;-60
2021/12/14 05:45:29;;;;;;;25.17;11.37;;;-1.40;99.90;;;;;;5011889;28;20245;-59
2021/12/14 05:47:56;;;;;;;24.77;8.37;;;-1.40;99.90;;;;;;4994157;28;20183;-60
2021/12/14 05:50:27;;;;;;;19.70;9.67;;;-1.40;99.90;;;;;;4993739;28;20249;-59
2021/12/14 05:52:54;;;;;;;16.20;6.13;;;-1.30;99.90;;;;;;5012269;28;20648;-60
2021/12/14 05:55:24;;;;;;;20.60;8.43;;;-1.40;99.90;;;;;;5011995;28;20191;-61
2021/12/14 05:57:54;;;;;;;22.57;8.40;;;-1.40;99.90;;;;;;5012161;28;20214;-59
2021/12/14 06:00:21;;;;;;;17.00;8.13;;;-1.40;99.90;;;;;;5011930;28;20187;-61
2021/12/14 06:02:47;;;;;;;22.07;9.20;;;-1.40;99.90;;;;;;5011618;28;20211;-60
2021/12/14 06:05:21;;;;;;;21.37;8.73;;;-1.40;99.90;;;;;;5011804;28;20208;-62
2021/12/14 06:07:47;;;;;;;23.93;9.53;;;-1.50;99.90;;;;;;5012360;28;20614;-58
2021/12/14 06:10:23;;;;;;;19.73;8.97;;;-1.50;99.90;;;;;;5011095;28;20635;-62
2021/12/14 06:12:49;;;;;;;14.60;6.87;;;-1.50;99.90;;;;;;5011559;28;20570;-60
2021/12/14 06:15:22;;;;;;;23.57;9.10;;;-1.50;99.90;;;;;;5011560;28;20666;-59
2021/12/14 06:17:49;;;;;;;23.53;8.43;;;-1.50;99.90;;;;;;5012138;28;20322;-62
2021/12/14 06:20:19;;;;;;;20.73;9.27;;;-1.50;99.90;;;;;;5011935;28;20395;-61
2021/12/14 06:22:47;;;;;;;21.77;9.90;;;-1.50;99.90;;;;;;5011755;28;20156;-58
2021/12/14 06:25:20;;;;;;;21.17;9.43;;;-1.40;99.90;;;;;;5011466;28;20230;-65
2021/12/14 06:27:47;;;;;;;20.17;9.07;;;-1.40;99.90;;;;;;5019391;28;20183;-60
2021/12/14 06:30:23;;;;;;;21.67;9.43;;;-1.30;99.90;;;;;;5020473;28;20182;-62
2021/12/14 06:32:58;;;;;;;17.50;8.40;;;-1.30;99.90;;;;;;5030415;28;20193;-59
2021/12/14 06:35:46;;;;;;;22.87;8.53;;;-1.30;99.90;;;;;;5020145;28;20187;-59
2021/12/14 06:38:25;;;;;;;26.10;10.27;;;-1.30;99.90;;;;;;5022609;28;20244;-59
2021/12/14 06:40:58;;;;;;;20.73;9.70;;;-1.30;99.90;;;;;;5031274;28;20214;-60
2021/12/14 06:43:47;;;;;;;17.60;8.27;;;-1.20;99.90;;;;;;5030808;28;20184;-60
2021/12/14 06:46:26;;;;;;;21.23;8.07;;;-1.20;99.90;;;;;;5029463;28;20684;-61
2021/12/14 06:49:08;;;;;;;20.07;9.33;;;-1.20;99.90;;;;;;5030747;28;20213;-58
2021/12/14 06:51:36;;;;;;;21.33;9.90;;;-1.30;99.90;;;;;;5011626;28;20187;-66
2021/12/14 06:54:07;;;;;;;21.07;10.20;;;-1.30;99.90;;;;;;5011063;28;20279;-61
2021/12/14 06:56:34;;;;;;;21.20;8.30;;;-1.20;99.90;;;;;;5018575;28;20202;-62
2021/12/14 06:59:07;;;;;;;23.53;10.30;;;-1.20;99.90;;;;;;5019829;28;20194;-62
2021/12/14 07:01:37;;;;;;;21.13;9.27;;;-1.10;99.90;;;;;;5010748;28;20266;-60
2021/12/14 07:04:10;;;;;;;20.57;9.77;;;-1.10;99.90;;;;;;5010677;28;20223;-60
2021/12/14 07:06:49;;;;;;;22.80;9.70;;;-1.10;99.90;;;;;;5010604;28;20265;-63
2021/12/14 07:09:16;;;;;;;22.70;8.83;;;-1.10;99.90;;;;;;5010426;28;20211;-61
2021/12/14 07:11:54;;;;;;;21.13;9.13;;;-1.10;99.90;;;;;;4992588;28;20270;-60
2021/12/14 07:14:26;;;;;;;18.00;6.43;;;-1.10;99.90;;;;;;4990973;28;20282;-62
2021/12/14 07:16:54;;;;;;;15.47;6.37;;;-1.10;99.90;;;;;;5008941;28;20189;-61
2021/12/14 07:19:46;;;;;;;21.70;8.60;;;-1.20;99.90;;;;;;5012477;28;20516;-60
2021/12/14 07:22:33;;;;;;;21.83;9.90;;;-1.10;99.90;;;;;;5014181;28;20612;-61
2021/12/14 07:25:08;;;;;;;19.97;7.53;;;-1.00;99.90;;;;;;4996267;28;20361;-64
2021/12/14 07:27:41;;;;;;;20.17;7.53;;;-1.00;99.90;;;;;;5023907;28;20649;-61
2021/12/14 07:30:43;;;;;;;20.67;9.33;;;-1.00;99.90;;;;;;5034686;28;20166;-61
2021/12/14 07:33:13;;;;;;;19.00;7.07;;;-1.00;99.90;;;;;;5002660;28;20186;-61
2021/12/14 07:35:59;;;;;;;23.23;8.77;;;-0.90;99.90;;;;;;5033862;28;20184;-61
2021/12/14 07:38:46;;;;;;;24.53;8.50;;;-0.90;99.90;;;;;;5034782;28;20534;-61
2021/12/14 07:41:14;;;;;;;23.67;8.43;;;-0.90;99.90;;;;;;5033892;28;20171;-61
2021/12/14 07:43:56;;;;;;;23.63;8.37;;;-1.00;99.90;;;;;;5034325;28;20206;-62
2021/12/14 07:46:49;;;;;;;23.57;9.80;;;-0.90;99.90;;;;;;5032919;28;20561;-62
2021/12/14 07:49:19;;;;;;;21.70;9.23;;;-0.90;99.90;;;;;;5032850;28;20171;-61
2021/12/14 07:51:48;;;;;;;26.40;9.13;;;-1.00;99.90;;;;;;5033165;28;20171;-60
2021/12/14 07:54:37;;;;;;;29.63;11.33;;;-0.90;99.90;;;;;;5033857;28;20186;-58
2021/12/14 07:57:09;;;;;;;19.70;7.70;;;-0.90;99.90;;;;;;5020213;28;20227;-62
2021/12/14 07:59:39;;;;;;;27.30;9.07;;;-0.80;99.90;;;;;;5013346;28;20581;-55
2021/12/14 08:02:13;;;;;;;20.23;8.60;;;-0.80;99.90;;;;;;5011989;28;20176;-62
2021/12/14 08:04:46;;;;;;;21.03;7.83;;;-0.80;99.90;;;;;;5012232;28;20179;-62
2021/12/14 08:07:31;;;;;;;20.03;7.97;;;-0.70;99.90;;;;;;5011831;28;20239;-62
2021/12/14 08:10:15;;;;;;;21.70;8.47;;;-0.80;99.90;;;;;;4994505;28;20214;-63
2021/12/14 08:12:45;;;;;;;20.07;8.53;;;-0.70;99.90;;;;;;5011839;28;20236;-63
2021/12/14 08:15:15;;;;;;;23.73;8.60;;;-0.80;99.90;;;;;;5011974;28;20187;-61
2021/12/14 08:17:42;;;;;;;24.23;9.40;;;-0.70;99.90;;;;;;5013190;28;20595;-63
2021/12/14 08:20:13;;;;;;;22.23;8.30;;;-0.60;99.90;;;;;;5013746;28;20189;-61
2021/12/14 08:22:41;;;;;;;25.47;9.57;;;-0.50;99.90;;;;;;5013600;28;20190;-62
2021/12/14 08:25:10;;;;;;;21.70;7.87;;;-0.40;99.90;;;;;;5013208;28;20201;-62
2021/12/14 08:27:37;;;;;;;12.23;5.87;;;-0.40;99.90;;;;;;5027717;28;20196;-65
2021/12/14 08:30:08;;;;;;;17.77;7.47;;;-0.40;99.90;;;;;;5031056;28;20185;-55
2021/12/14 08:32:37;;;;;;;20.00;7.47;;;-0.40;99.90;;;;;;5015225;28;20592;-60
2021/12/14 08:35:07;;;;;;;20.50;6.90;;;-0.40;99.90;;;;;;5033184;28;20576;-62
2021/12/14 08:37:43;;;;;;;12.37;6.00;;;-0.30;99.90;;;;;;5032940;28;20191;-62
2021/12/14 08:40:12;;;;;;;21.93;7.37;;;-0.30;99.90;;;;;;5032655;28;20606;-61
2021/12/14 08:43:02;;;;;;;20.97;8.17;;;-0.20;99.90;;;;;;5033387;28;20202;-61
2021/12/14 08:45:34;;;;;;;17.13;7.53;;;-0.20;99.90;;;;;;5033325;28;20211;-61
2021/12/14 08:48:17;;;;;;;24.83;7.93;;;-0.10;99.90;;;;;;5032485;28;20663;-75
2021/12/14 08:51:15;;;;;;;17.43;7.80;;;-0.10;99.90;;;;;;5032836;28;20192;-62
2021/12/14 08:53:58;;;;;;;17.27;6.80;;;-0.10;99.90;;;;;;5032903;28;20230;-66
2021/12/14 08:56:29;;;;;;;9.60;5.00;;;-0.20;99.90;;;;;;5025108;28;20189;-62
2021/12/14 08:58:55;;;;;;;18.23;6.53;;;-0.30;99.90;;;;;;5012652;28;20179;-61
2021/12/14 09:01:26;;;;;;;17.60;7.50;;;-0.20;99.90;;;;;;5012546;28;20281;-62
2021/12/14 09:04:03;;;;;;;18.13;7.30;;;-0.10;99.90;;;;;;5012516;28;20200;-60
2021/12/14 09:06:34;;;;;;;17.03;7.73;;;-0.10;99.90;;;;;;5012845;28;20740;-62
2021/12/14 09:09:05;;;;;;;19.83;8.50;;;-0.10;99.90;;;;;;5013696;28;20249;-62
2021/12/14 09:11:35;;;;;;;14.27;7.43;;;0.10;99.90;;;;;;5012431;28;20189;-61
2021/12/14 09:14:09;;;;;;;18.83;8.17;;;0.20;99.90;;;;;;5012444;28;20725;-61
2021/12/14 09:16:36;;;;;;;18.17;8.80;;;0.30;99.90;;;;;;5012569;28;20214;-62
2021/12/14 09:19:19;;;;;;;13.17;5.47;;;0.40;99.90;;;;;;5012301;28;20186;-70
2021/12/14 09:21:48;;;;;;;14.97;6.83;;;0.40;99.90;;;;;;5012529;28;20514;-60
2021/12/14 09:24:18;;;;;;;12.20;5.20;;;0.20;99.90;;;;;;5012469;28;20186;-60
2021/12/14 09:26:49;;;;;;;17.77;7.13;;;0.20;99.90;;;;;;5000639;28;20219;-61
2021/12/14 09:29:18;;;;;;;15.90;6.47;;;0.10;99.90;;;;;;5012102;28;20200;-60
2021/12/14 09:31:47;;;;;;;11.60;6.40;;;0.00;99.90;;;;;;5012118;28;20610;-67
2021/12/14 09:34:16;;;;;;;19.87;7.43;;;0.00;99.90;;;;;;5011653;28;20188;-61
2021/12/14 09:36:44;;;;;;;13.63;5.20;;;0.00;99.90;;;;;;5011755;28;20246;-64
2021/12/14 09:39:15;;;;;;;15.40;5.77;;;-0.10;99.90;;;;;;4994952;28;20182;-61
2021/12/14 09:41:42;;;;;;;18.43;7.53;;;-0.10;99.90;;;;;;5010994;28;20627;-62
2021/12/14 09:44:11;;;;;;;15.50;7.23;;;0.00;99.90;;;;;;5011382;28;20176;-64
2021/12/14 09:46:38;;;;;;;17.43;6.63;;;0.00;99.90;;;;;;5011581;28;20672;-62
2021/12/14 09:49:06;;;;;;;19.03;7.67;;;-0.10;99.90;;;;;;5012489;28;20595;-70
2021/12/14 09:51:41;;;;;;;21.63;6.80;;;0.00;99.90;;;;;;5012225;28;20182;-60
2021/12/14 09:54:11;;;;;;;11.90;5.70;;;0.10;99.90;;;;;;5011922;28;20188;-61
2021/12/14 09:56:49;;;;;;;16.60;6.43;;;0.10;99.90;;;;;;5020162;28;20632;-57
2021/12/14 09:59:15;;;;;;;20.20;8.63;;;0.10;99.90;;;;;;5031264;28;20179;-59
2021/12/14 10:02:08;;;;;;;17.03;8.53;;;0.20;99.90;;;;;;5031296;28;20180;-65
2021/12/14 10:04:44;;;;;;;15.07;6.20;;;0.20;99.90;;;;;;5007637;28;20633;-64
2021/12/14 10:07:10;;;;;;;14.87;7.33;;;0.20;99.90;;;;;;5031314;28;20212;-61
2021/12/14 10:09:43;;;;;;;12.50;6.57;;;0.30;99.90;;;;;;5030789;28;20273;-62
2021/12/14 10:14:53;;;;;;;10.57;5.33;;;0.40;99.90;;;;;;5031542;28;20574;-60
2021/12/14 10:17:23;;;;;;;24.43;7.67;;;0.40;99.90;;;;;;5012619;28;20181;-61
2021/12/14 10:19:49;;;;;;;15.93;7.20;;;0.50;99.90;;;;;;5030519;28;20228;-59
2021/12/14 10:22:28;;;;;;;14.90;7.10;;;0.60;99.90;;;;;;5030914;28;20273;-61
2021/12/14 10:25:02;;;;;;;14.93;6.80;;;0.50;99.90;;;;;;5012819;28;20185;-61
2021/12/14 10:27:32;;;;;;;17.47;7.00;;;0.60;99.90;;;;;;5023975;28;20280;-57
2021/12/14 10:30:01;;;;;;;14.60;6.63;;;0.60;99.90;;;;;;5030836;28;20524;-62
2021/12/14 10:32:36;;;;;;;16.23;6.83;;;0.70;99.90;;;;;;5012892;28;20544;-63
2021/12/14 10:35:14;;;;;;;18.70;6.90;;;0.70;99.90;;;;;;5031264;28;20189;-61
2021/12/14 10:38:00;;;;;;;18.30;7.60;;;0.80;99.90;;;;;;5029892;28;20499;-61
2021/12/14 10:43:23;;;;;;;19.07;8.13;;;0.60;99.90;;;;;;5030574;28;20250;-63
2021/12/14 10:45:59;;;;;;;17.97;7.20;;;0.50;99.90;;;;;;5030947;28;20307;-61
2021/12/14 10:48:30;;;;;;;20.40;8.47;;;0.40;99.90;;;;;;5013158;28;20195;-58
2021/12/14 10:50:58;;;;;;;24.47;8.80;;;0.30;99.90;;;;;;5030664;28;20193;-62
2021/12/14 10:53:25;;;;;;;30.87;8.53;;;0.30;99.90;;;;;;5029263;28;20539;-58
2021/12/14 10:56:00;;;;;;;21.73;8.33;;;0.40;99.90;;;;;;5029861;28;20185;-61
2021/12/14 10:58:29;;;;;;;14.30;6.27;;;0.40;99.90;;;;;;5030500;28;20197;-55
2021/12/14 11:01:08;;;;;;;18.27;7.97;;;0.50;99.90;;;;;;5030290;28;20176;-56
2021/12/14 11:03:40;;;;;;;16.47;6.80;;;0.50;99.90;;;;;;5030428;28;20643;-63
2021/12/14 11:06:12;;;;;;;12.57;4.67;;;0.50;99.90;;;;;;5030269;28;20213;-62
2021/12/14 11:09:00;;;;;;;9.60;3.80;;;0.60;99.90;;;;;;5030901;28;20182;-60
2021/12/14 11:11:46;;;;;;;16.67;6.63;;;0.60;99.90;;;;;;5029752;28;20694;-62
2021/12/14 11:14:16;;;;;;;15.87;6.47;;;0.40;99.90;;;;;;4994577;28;20258;-63
2021/12/14 11:19:44;;;;;;;11.63;4.87;;;0.50;99.90;;;;;;5030440;28;20586;-54
2021/12/14 11:22:11;;;;;;;22.63;8.00;;;0.50;99.90;;;;;;5030071;28;20208;-61
2021/12/14 11:24:38;;;;;;;14.10;6.53;;;0.40;99.90;;;;;;5030159;28;20674;-53
2021/12/14 11:27:16;;;;;;;15.73;5.47;;;0.40;99.90;;;;;;5023479;28;20216;-57
2021/12/14 11:29:42;;;;;;;19.67;6.00;;;0.30;99.90;;;;;;5030375;28;20184;-61
2021/12/14 11:32:17;;;;;;;16.47;7.33;;;0.20;99.90;;;;;;5030485;28;20180;-79
2021/12/14 11:34:45;;;;;;;16.67;7.10;;;0.30;99.90;;;;;;5029244;28;20220;-63
2021/12/14 11:37:16;;;;;;;13.27;6.43;;;0.40;99.90;;;;;;5011198;28;20917;-66
2021/12/14 11:39:51;;;;;;;20.53;6.57;;;0.30;99.90;;;;;;5029414;28;20191;-61
2021/12/14 11:42:22;;;;;;;14.17;6.30;;;0.20;99.90;;;;;;5030272;28;20538;-62
2021/12/14 11:44:56;;;;;;;13.27;5.77;;;0.20;99.90;;;;;;5012720;28;20180;-61
2021/12/14 11:50:12;;;;;;;21.13;7.60;;;0.10;99.90;;;;;;5030783;28;20177;-61
2021/12/14 11:53:00;;;;;;;16.77;7.00;;;0.30;99.90;;;;;;5029018;28;20549;-63
2021/12/14 11:55:31;;;;;;;20.17;7.60;;;0.40;99.90;;;;;;5027827;28;20192;-64
2021/12/14 11:58:19;;;;;;;18.33;7.80;;;0.30;99.90;;;;;;5010202;28;20186;-66
2021/12/14 12:00:54;;;;;;;18.77;8.27;;;0.20;99.90;;;;;;5028118;28;20206;-68
2021/12/14 12:03:46;;;;;;;18.30;7.47;;;0.30;99.90;;;;;;5028864;28;20195;-61
2021/12/14 12:06:42;;;;;;;20.33;8.30;;;0.30;99.90;;;;;;5031813;28;20307;-63
2021/12/14 12:09:28;;;;;;;19.73;8.20;;;0.50;99.90;;;;;;5033292;28;20267;-61
2021/12/14 12:12:08;;;;;;;25.77;8.27;;;0.50;99.90;;;;;;5033553;28;20628;-62
2021/12/14 12:14:40;;;;;;;13.03;6.37;;;0.40;99.90;;;;;;5033021;28;20225;-61
2021/12/14 12:17:23;;;;;;;14.87;6.37;;;0.40;99.90;;;;;;5033302;28;20193;-60
2021/12/14 12:19:54;;;;;;;17.73;7.27;;;0.40;99.90;;;;;;5033820;28;20181;-63
2021/12/14 12:22:21;;;;;;;22.33;9.03;;;0.40;99.90;;;;;;5032762;28;20566;-60
2021/12/14 12:24:52;;;;;;;21.43;9.13;;;0.40;99.90;;;;;;5033173;28;20579;-62
2021/12/14 12:27:34;;;;;;;14.93;6.73;;;0.50;99.90;;;;;;5032163;28;20201;-62
2021/12/14 12:30:03;;;;;;;17.97;8.13;;;0.60;99.90;;;;;;5014807;28;20189;-64
2021/12/14 12:32:29;;;;;;;19.37;9.10;;;0.50;99.90;;;;;;5031699;28;20541;-64
2021/12/14 12:34:55;;;;;;;24.70;10.00;;;0.40;99.90;;;;;;5031437;28;20184;-61
2021/12/14 12:37:42;;;;;;;18.90;8.03;;;0.40;99.90;;;;;;5031756;28;20586;-65
2021/12/14 12:40:15;;;;;;;12.67;5.37;;;0.40;99.90;;;;;;5031638;28;20184;-62
2021/12/14 12:42:42;;;;;;;23.10;9.40;;;0.30;99.90;;;;;;5031739;28;20273;-62
2021/12/14 12:45:34;;;;;;;19.20;7.83;;;0.40;99.90;;;;;;5031821;28;20211;-62
2021/12/14 12:48:01;;;;;;;13.73;7.20;;;0.30;99.90;;;;;;5032601;28;20193;-62
2021/12/14 12:50:29;;;;;;;18.03;7.63;;;0.40;99.90;;;;;;5032675;28;20189;-63
2021/12/14 12:52:56;;;;;;;24.60;8.97;;;0.40;99.90;;;;;;5032243;28;20234;-61
2021/12/14 12:55:30;;;;;;;20.73;8.50;;;0.30;99.90;;;;;;5032538;28;20192;-63
2021/12/14 12:58:11;;;;;;;19.70;7.67;;;0.30;99.90;;;;;;5032541;28;20204;-61
2021/12/14 13:00:43;;;;;;;16.63;7.37;;;0.20;99.90;;;;;;5032734;28;20188;-61
2021/12/14 13:03:24;;;;;;;16.63;7.23;;;0.10;99.90;;;;;;5032826;28;20177;-61
2021/12/14 13:05:55;;;;;;;22.07;8.93;;;0.20;99.90;;;;;;5032528;28;20209;-64
2021/12/14 13:08:43;;;;;;;19.10;9.00;;;0.20;99.90;;;;;;5028172;28;20220;-61
2021/12/14 13:11:21;;;;;;;17.60;8.50;;;0.20;99.90;;;;;;5026829;28;20477;-63
2021/12/14 13:13:52;;;;;;;18.87;8.77;;;0.20;99.90;;;;;;5024417;28;20228;-65
2021/12/14 13:16:37;;;;;;;26.03;9.17;;;0.20;99.90;;;;;;5030691;28;20191;-65
2021/12/14 13:19:04;;;;;;;24.60;10.20;;;0.20;99.90;;;;;;5031874;28;20276;-65
2021/12/14 13:21:33;;;;;;;22.83;9.33;;;0.10;99.90;;;;;;5031698;28;20625;-61
2021/12/14 13:24:03;;;;;;;20.47;8.87;;;0.00;99.90;;;;;;5032053;28;20177;-60
2021/12/14 13:26:32;;;;;;;29.50;10.63;;;-0.10;99.90;;;;;;5031200;28;20223;-61
2021/12/14 13:29:14;;;;;;;23.07;9.40;;;-0.10;99.90;;;;;;5032238;28;20318;-61
2021/12/14 13:31:41;;;;;;;17.77;8.70;;;-0.10;99.90;;;;;;5031722;28;20486;-61
2021/12/14 13:34:11;;;;;;;14.30;5.07;;;-0.20;99.90;;;;;;5031728;28;20211;-54
2021/12/14 13:36:39;;;;;;;23.07;8.83;;;-0.20;99.90;;;;;;5031612;28;20254;-56
2021/12/14 13:39:07;;;;;;;22.90;8.80;;;-0.20;99.90;;;;;;5031309;28;20208;-56
2021/12/14 13:41:59;;;;;;;21.30;9.00;;;-0.30;99.90;;;;;;5027129;28;20192;-57
2021/12/14 13:44:30;;;;;;;18.30;7.97;;;-0.30;99.90;;;;;;5019782;28;20362;-55